sensor_id;sensor_type;location;lat;lon;timestamp;pressure;altitude;pressure_sealevel;temperature
14851;BMP180;7517;48.400;11.770;2022-12-18T00:01:23;97390.00;;;0.90
14851;BMP180;7517;48.400;11.770;2022-12-18T00:03:51;97394.00;;;0.90
14851;BMP180;7517;48.400;11.770;2022-12-18T00:06:20;97395.00;;;1.00
14851;BMP180;7517;48.400;11.770;2022-12-18T00:08:47;97393.00;;;1.00
14851;BMP180;7517;48.400;11.770;2022-12-18T00:11:18;97402.00;;;1.00
14851;BMP180;7517;48.400;11.770;2022-12-18T00:13:47;97409.00;;;1.00
14851;BMP180;7517;48.400;11.770;2022-12-18T00:16:18;97421.00;;;1.00
14851;BMP180;7517;48.400;11.770;2022-12-18T00:18:47;97413.00;;;0.90
14851;BMP180;7517;48.400;11.770;2022-12-18T00:21:15;97416.00;;;1.00
14851;BMP180;7517;48.400;11.770;2022-12-18T00:23:46;97412.00;;;1.00
14851;BMP180;7517;48.400;11.770;2022-12-18T00:26:16;97409.00;;;1.00
14851;BMP180;7517;48.400;11.770;2022-12-18T00:28:45;97424.00;;;1.00
14851;BMP180;7517;48.400;11.770;2022-12-18T00:31:16;97418.00;;;1.00
14851;BMP180;7517;48.400;11.770;2022-12-18T00:33:44;97424.00;;;1.00
14851;BMP180;7517;48.400;11.770;2022-12-18T00:36:14;97423.00;;;1.00
14851;BMP180;7517;48.400;11.770;2022-12-18T00:38:42;97433.00;;;1.00
14851;BMP180;7517;48.400;11.770;2022-12-18T00:41:12;97419.00;;;1.00
14851;BMP180;7517;48.400;11.770;2022-12-18T00:43:40;97420.00;;;1.00
14851;BMP180;7517;48.400;11.770;2022-12-18T00:46:08;97405.00;;;0.90
14851;BMP180;7517;48.400;11.770;2022-12-18T00:48:35;97420.00;;;1.00
14851;BMP180;7517;48.400;11.770;2022-12-18T00:51:02;97421.00;;;1.00
14851;BMP180;7517;48.400;11.770;2022-12-18T00:53:30;97410.00;;;1.00
14851;BMP180;7517;48.400;11.770;2022-12-18T00:55:57;97420.00;;;1.00
14851;BMP180;7517;48.400;11.770;2022-12-18T00:58:24;97424.00;;;1.00
14851;BMP180;7517;48.400;11.770;2022-12-18T01:00:52;97421.00;;;1.00
14851;BMP180;7517;48.400;11.770;2022-12-18T01:03:21;97432.00;;;1.00
14851;BMP180;7517;48.400;11.770;2022-12-18T01:05:48;97429.00;;;1.00
14851;BMP180;7517;48.400;11.770;2022-12-18T01:08:15;97442.00;;;1.00
14851;BMP180;7517;48.400;11.770;2022-12-18T01:10:42;97446.00;;;1.00
14851;BMP180;7517;48.400;11.770;2022-12-18T01:13:09;97440.00;;;1.00
14851;BMP180;7517;48.400;11.770;2022-12-18T01:15:37;97438.00;;;1.10
14851;BMP180;7517;48.400;11.770;2022-12-18T01:18:04;97435.00;;;1.10
14851;BMP180;7517;48.400;11.770;2022-12-18T01:20:33;97441.00;;;1.10
14851;BMP180;7517;48.400;11.770;2022-12-18T01:23:00;97449.00;;;1.10
14851;BMP180;7517;48.400;11.770;2022-12-18T01:25:27;97442.00;;;1.10
14851;BMP180;7517;48.400;11.770;2022-12-18T01:27:54;97451.00;;;1.10
14851;BMP180;7517;48.400;11.770;2022-12-18T01:30:21;97446.00;;;1.10
14851;BMP180;7517;48.400;11.770;2022-12-18T01:32:49;97456.00;;;1.20
14851;BMP180;7517;48.400;11.770;2022-12-18T01:35:16;97463.00;;;1.20
14851;BMP180;7517;48.400;11.770;2022-12-18T01:37:45;97472.00;;;1.20
14851;BMP180;7517;48.400;11.770;2022-12-18T01:40:12;97482.00;;;1.20
14851;BMP180;7517;48.400;11.770;2022-12-18T01:42:40;97483.00;;;1.30
14851;BMP180;7517;48.400;11.770;2022-12-18T01:45:25;97483.00;;;1.20
14851;BMP180;7517;48.400;11.770;2022-12-18T01:47:55;97490.00;;;1.30
14851;BMP180;7517;48.400;11.770;2022-12-18T01:50:28;97491.00;;;1.30
14851;BMP180;7517;48.400;11.770;2022-12-18T01:53:05;97495.00;;;1.30
14851;BMP180;7517;48.400;11.770;2022-12-18T01:55:39;97499.00;;;1.40
14851;BMP180;7517;48.400;11.770;2022-12-18T01:58:07;97505.00;;;1.30
14851;BMP180;7517;48.400;11.770;2022-12-18T02:00:35;97500.00;;;1.40
14851;BMP180;7517;48.400;11.770;2022-12-18T02:03:02;97495.00;;;1.40
14851;BMP180;7517;48.400;11.770;2022-12-18T02:05:44;97496.00;;;1.40
14851;BMP180;7517;48.400;11.770;2022-12-18T02:08:21;97486.00;;;1.40
14851;BMP180;7517;48.400;11.770;2022-12-18T02:10:58;97483.00;;;1.40
14851;BMP180;7517;48.400;11.770;2022-12-18T02:13:38;97482.00;;;1.50
14851;BMP180;7517;48.400;11.770;2022-12-18T02:16:19;97472.00;;;1.50
14851;BMP180;7517;48.400;11.770;2022-12-18T02:18:53;97472.00;;;1.50
14851;BMP180;7517;48.400;11.770;2022-12-18T02:21:33;97473.00;;;1.50
14851;BMP180;7517;48.400;11.770;2022-12-18T02:24:18;97471.00;;;1.50
14851;BMP180;7517;48.400;11.770;2022-12-18T02:26:54;97471.00;;;1.50
14851;BMP180;7517;48.400;11.770;2022-12-18T02:29:26;97473.00;;;1.50
14851;BMP180;7517;48.400;11.770;2022-12-18T02:31:58;97463.00;;;1.50
14851;BMP180;7517;48.400;11.770;2022-12-18T02:34:32;97469.00;;;1.50
14851;BMP180;7517;48.400;11.770;2022-12-18T02:37:05;97479.00;;;1.50
14851;BMP180;7517;48.400;11.770;2022-12-18T02:39:36;97475.00;;;1.50
14851;BMP180;7517;48.400;11.770;2022-12-18T02:42:06;97469.00;;;1.50
14851;BMP180;7517;48.400;11.770;2022-12-18T02:44:34;97467.00;;;1.50
14851;BMP180;7517;48.400;11.770;2022-12-18T02:47:02;97475.00;;;1.50
14851;BMP180;7517;48.400;11.770;2022-12-18T02:49:39;97469.00;;;1.50
14851;BMP180;7517;48.400;11.770;2022-12-18T02:52:21;97467.00;;;1.50
14851;BMP180;7517;48.400;11.770;2022-12-18T02:55:06;97471.00;;;1.50
14851;BMP180;7517;48.400;11.770;2022-12-18T02:57:44;97473.00;;;1.60
14851;BMP180;7517;48.400;11.770;2022-12-18T03:00:19;97479.00;;;1.60
14851;BMP180;7517;48.400;11.770;2022-12-18T03:02:53;97484.00;;;1.60
14851;BMP180;7517;48.400;11.770;2022-12-18T03:05:28;97475.00;;;1.60
14851;BMP180;7517;48.400;11.770;2022-12-18T03:08:02;97454.00;;;1.60
14851;BMP180;7517;48.400;11.770;2022-12-18T03:10:35;97459.00;;;1.60
14851;BMP180;7517;48.400;11.770;2022-12-18T03:13:11;97453.00;;;1.60
14851;BMP180;7517;48.400;11.770;2022-12-18T03:15:45;97463.00;;;1.70
14851;BMP180;7517;48.400;11.770;2022-12-18T03:18:19;97462.00;;;1.70
14851;BMP180;7517;48.400;11.770;2022-12-18T03:20:49;97464.00;;;1.60
14851;BMP180;7517;48.400;11.770;2022-12-18T03:23:21;97461.00;;;1.60
14851;BMP180;7517;48.400;11.770;2022-12-18T03:25:53;97466.00;;;1.60
14851;BMP180;7517;48.400;11.770;2022-12-18T03:28:23;97462.00;;;1.60
14851;BMP180;7517;48.400;11.770;2022-12-18T03:30:56;97465.00;;;1.60
14851;BMP180;7517;48.400;11.770;2022-12-18T03:33:30;97467.00;;;1.60
14851;BMP180;7517;48.400;11.770;2022-12-18T03:35:58;97469.00;;;1.60
14851;BMP180;7517;48.400;11.770;2022-12-18T03:38:25;97466.00;;;1.60
14851;BMP180;7517;48.400;11.770;2022-12-18T03:41:01;97482.00;;;1.60
14851;BMP180;7517;48.400;11.770;2022-12-18T03:43:43;97478.00;;;1.60
14851;BMP180;7517;48.400;11.770;2022-12-18T03:46:24;97473.00;;;1.60
14851;BMP180;7517;48.400;11.770;2022-12-18T03:49:02;97472.00;;;1.50
14851;BMP180;7517;48.400;11.770;2022-12-18T03:51:40;97466.00;;;1.50
14851;BMP180;7517;48.400;11.770;2022-12-18T03:54:11;97468.00;;;1.40
14851;BMP180;7517;48.400;11.770;2022-12-18T03:56:46;97462.00;;;1.40
14851;BMP180;7517;48.400;11.770;2022-12-18T03:59:18;97470.00;;;1.40
14851;BMP180;7517;48.400;11.770;2022-12-18T04:01:49;97466.00;;;1.40
14851;BMP180;7517;48.400;11.770;2022-12-18T04:04:18;97460.00;;;1.30
14851;BMP180;7517;48.400;11.770;2022-12-18T04:06:48;97471.00;;;1.40
14851;BMP180;7517;48.400;11.770;2022-12-18T04:09:16;97469.00;;;1.40
14851;BMP180;7517;48.400;11.770;2022-12-18T04:11:45;97473.00;;;1.40
14851;BMP180;7517;48.400;11.770;2022-12-18T04:14:13;97471.00;;;1.40
14851;BMP180;7517;48.400;11.770;2022-12-18T04:16:41;97468.00;;;1.40
14851;BMP180;7517;48.400;11.770;2022-12-18T04:19:09;97477.00;;;1.40
14851;BMP180;7517;48.400;11.770;2022-12-18T04:21:36;97485.00;;;1.50
14851;BMP180;7517;48.400;11.770;2022-12-18T04:24:03;97488.00;;;1.50
14851;BMP180;7517;48.400;11.770;2022-12-18T04:26:31;97484.00;;;1.50
14851;BMP180;7517;48.400;11.770;2022-12-18T04:28:58;97478.00;;;1.50
14851;BMP180;7517;48.400;11.770;2022-12-18T04:31:27;97470.00;;;1.60
14851;BMP180;7517;48.400;11.770;2022-12-18T04:33:55;97473.00;;;1.60
14851;BMP180;7517;48.400;11.770;2022-12-18T04:36:23;97467.00;;;1.60
14851;BMP180;7517;48.400;11.770;2022-12-18T04:38:50;97482.00;;;1.60
14851;BMP180;7517;48.400;11.770;2022-12-18T04:41:17;97495.00;;;1.60
14851;BMP180;7517;48.400;11.770;2022-12-18T04:43:44;97511.00;;;1.60
14851;BMP180;7517;48.400;11.770;2022-12-18T04:46:11;97510.00;;;1.70
14851;BMP180;7517;48.400;11.770;2022-12-18T04:48:39;97502.00;;;1.70
14851;BMP180;7517;48.400;11.770;2022-12-18T04:51:07;97519.00;;;1.70
14851;BMP180;7517;48.400;11.770;2022-12-18T04:53:34;97520.00;;;1.70
14851;BMP180;7517;48.400;11.770;2022-12-18T04:56:06;97517.00;;;1.70
14851;BMP180;7517;48.400;11.770;2022-12-18T04:58:34;97520.00;;;1.70
14851;BMP180;7517;48.400;11.770;2022-12-18T05:01:02;97526.00;;;1.70
14851;BMP180;7517;48.400;11.770;2022-12-18T05:03:33;97516.00;;;1.70
14851;BMP180;7517;48.400;11.770;2022-12-18T05:09:35;97495.00;;;1.60
14851;BMP180;7517;48.400;11.770;2022-12-18T05:12:03;97511.00;;;1.60
14851;BMP180;7517;48.400;11.770;2022-12-18T05:14:30;97513.00;;;1.60
14851;BMP180;7517;48.400;11.770;2022-12-18T05:16:58;97494.00;;;1.60
14851;BMP180;7517;48.400;11.770;2022-12-18T05:19:25;97522.00;;;1.60
14851;BMP180;7517;48.400;11.770;2022-12-18T05:21:54;97530.00;;;1.60
14851;BMP180;7517;48.400;11.770;2022-12-18T05:24:21;97499.00;;;1.60
14851;BMP180;7517;48.400;11.770;2022-12-18T05:26:48;97493.00;;;1.70
14851;BMP180;7517;48.400;11.770;2022-12-18T05:29:15;97513.00;;;1.70
14851;BMP180;7517;48.400;11.770;2022-12-18T05:31:42;97520.00;;;1.70
14851;BMP180;7517;48.400;11.770;2022-12-18T05:34:09;97522.00;;;1.70
14851;BMP180;7517;48.400;11.770;2022-12-18T05:36:37;97526.00;;;1.70
14851;BMP180;7517;48.400;11.770;2022-12-18T05:39:05;97530.00;;;1.70
14851;BMP180;7517;48.400;11.770;2022-12-18T05:41:33;97526.00;;;1.70
14851;BMP180;7517;48.400;11.770;2022-12-18T05:44:01;97531.00;;;1.70
14851;BMP180;7517;48.400;11.770;2022-12-18T05:46:28;97527.00;;;1.70
14851;BMP180;7517;48.400;11.770;2022-12-18T05:48:59;97534.00;;;1.70
14851;BMP180;7517;48.400;11.770;2022-12-18T05:51:27;97532.00;;;1.70
14851;BMP180;7517;48.400;11.770;2022-12-18T05:53:54;97545.00;;;1.80
14851;BMP180;7517;48.400;11.770;2022-12-18T05:56:23;97530.00;;;1.70
14851;BMP180;7517;48.400;11.770;2022-12-18T05:58:52;97542.00;;;1.70
14851;BMP180;7517;48.400;11.770;2022-12-18T06:01:23;97551.00;;;1.80
14851;BMP180;7517;48.400;11.770;2022-12-18T06:03:51;97552.00;;;1.70
14851;BMP180;7517;48.400;11.770;2022-12-18T06:06:21;97552.00;;;1.70
14851;BMP180;7517;48.400;11.770;2022-12-18T06:08:49;97554.00;;;1.80
14851;BMP180;7517;48.400;11.770;2022-12-18T06:11:19;97556.00;;;1.70
14851;BMP180;7517;48.400;11.770;2022-12-18T06:13:50;97548.00;;;1.70
14851;BMP180;7517;48.400;11.770;2022-12-18T06:16:18;97544.00;;;1.70
14851;BMP180;7517;48.400;11.770;2022-12-18T06:18:45;97544.00;;;1.70
14851;BMP180;7517;48.400;11.770;2022-12-18T06:21:13;97547.00;;;1.70
14851;BMP180;7517;48.400;11.770;2022-12-18T06:23:40;97533.00;;;1.70
14851;BMP180;7517;48.400;11.770;2022-12-18T06:26:09;97556.00;;;1.70
14851;BMP180;7517;48.400;11.770;2022-12-18T06:28:37;97536.00;;;1.70
14851;BMP180;7517;48.400;11.770;2022-12-18T06:31:07;97550.00;;;1.70
14851;BMP180;7517;48.400;11.770;2022-12-18T06:33:35;97556.00;;;1.70
14851;BMP180;7517;48.400;11.770;2022-12-18T06:36:05;97554.00;;;1.70
14851;BMP180;7517;48.400;11.770;2022-12-18T06:38:34;97555.00;;;1.70
14851;BMP180;7517;48.400;11.770;2022-12-18T06:41:07;97558.00;;;1.70
14851;BMP180;7517;48.400;11.770;2022-12-18T06:43:37;97552.00;;;1.70
14851;BMP180;7517;48.400;11.770;2022-12-18T06:46:06;97573.00;;;1.70
14851;BMP180;7517;48.400;11.770;2022-12-18T06:48:33;97577.00;;;1.70
14851;BMP180;7517;48.400;11.770;2022-12-18T06:51:01;97572.00;;;1.70
14851;BMP180;7517;48.400;11.770;2022-12-18T06:53:34;97588.00;;;1.70
14851;BMP180;7517;48.400;11.770;2022-12-18T06:56:02;97575.00;;;1.70
14851;BMP180;7517;48.400;11.770;2022-12-18T06:58:30;97581.00;;;1.70
14851;BMP180;7517;48.400;11.770;2022-12-18T07:01:00;97584.00;;;1.80
14851;BMP180;7517;48.400;11.770;2022-12-18T07:03:29;97577.00;;;1.90
14851;BMP180;7517;48.400;11.770;2022-12-18T07:05:56;97590.00;;;1.90
14851;BMP180;7517;48.400;11.770;2022-12-18T07:08:24;97592.00;;;1.90
14851;BMP180;7517;48.400;11.770;2022-12-18T07:10:51;97593.00;;;2.00
14851;BMP180;7517;48.400;11.770;2022-12-18T07:13:19;97596.00;;;2.00
14851;BMP180;7517;48.400;11.770;2022-12-18T07:15:46;97618.00;;;2.00
14851;BMP180;7517;48.400;11.770;2022-12-18T07:18:14;97620.00;;;1.90
14851;BMP180;7517;48.400;11.770;2022-12-18T07:20:42;97618.00;;;1.90
14851;BMP180;7517;48.400;11.770;2022-12-18T07:23:10;97625.00;;;1.80
14851;BMP180;7517;48.400;11.770;2022-12-18T07:25:38;97623.00;;;1.80
14851;BMP180;7517;48.400;11.770;2022-12-18T07:28:05;97621.00;;;1.80
14851;BMP180;7517;48.400;11.770;2022-12-18T07:30:32;97613.00;;;1.80
14851;BMP180;7517;48.400;11.770;2022-12-18T07:33:00;97607.00;;;1.70
14851;BMP180;7517;48.400;11.770;2022-12-18T07:35:27;97613.00;;;1.70
14851;BMP180;7517;48.400;11.770;2022-12-18T07:37:58;97615.00;;;1.70
14851;BMP180;7517;48.400;11.770;2022-12-18T07:40:25;97623.00;;;1.60
14851;BMP180;7517;48.400;11.770;2022-12-18T07:42:53;97623.00;;;1.60
14851;BMP180;7517;48.400;11.770;2022-12-18T07:45:20;97623.00;;;1.50
14851;BMP180;7517;48.400;11.770;2022-12-18T07:47:47;97609.00;;;1.50
14851;BMP180;7517;48.400;11.770;2022-12-18T07:50:15;97607.00;;;1.50
14851;BMP180;7517;48.400;11.770;2022-12-18T07:52:42;97604.00;;;1.50
14851;BMP180;7517;48.400;11.770;2022-12-18T07:55:11;97612.00;;;1.50
14851;BMP180;7517;48.400;11.770;2022-12-18T07:57:38;97629.00;;;1.40
14851;BMP180;7517;48.400;11.770;2022-12-18T08:00:06;97617.00;;;1.40
14851;BMP180;7517;48.400;11.770;2022-12-18T08:02:34;97624.00;;;1.40
14851;BMP180;7517;48.400;11.770;2022-12-18T08:05:01;97603.00;;;1.30
14851;BMP180;7517;48.400;11.770;2022-12-18T08:07:28;97613.00;;;1.30
14851;BMP180;7517;48.400;11.770;2022-12-18T08:09:55;97620.00;;;1.30
14851;BMP180;7517;48.400;11.770;2022-12-18T08:12:24;97604.00;;;1.30
14851;BMP180;7517;48.400;11.770;2022-12-18T08:14:51;97603.00;;;1.30
14851;BMP180;7517;48.400;11.770;2022-12-18T08:17:20;97600.00;;;1.30
14851;BMP180;7517;48.400;11.770;2022-12-18T08:20:05;97599.00;;;1.40
14851;BMP180;7517;48.400;11.770;2022-12-18T08:22:34;97622.00;;;1.40
14851;BMP180;7517;48.400;11.770;2022-12-18T08:25:02;97628.00;;;1.50
14851;BMP180;7517;48.400;11.770;2022-12-18T08:27:31;97623.00;;;1.60
14851;BMP180;7517;48.400;11.770;2022-12-18T08:29:58;97649.00;;;1.60
14851;BMP180;7517;48.400;11.770;2022-12-18T08:32:27;97651.00;;;1.60
14851;BMP180;7517;48.400;11.770;2022-12-18T08:34:55;97638.00;;;1.60
14851;BMP180;7517;48.400;11.770;2022-12-18T08:37:22;97637.00;;;1.60
14851;BMP180;7517;48.400;11.770;2022-12-18T08:39:49;97634.00;;;1.60
14851;BMP180;7517;48.400;11.770;2022-12-18T08:42:17;97648.00;;;1.60
14851;BMP180;7517;48.400;11.770;2022-12-18T08:45:05;97654.00;;;1.60
14851;BMP180;7517;48.400;11.770;2022-12-18T08:47:32;97647.00;;;1.70
14851;BMP180;7517;48.400;11.770;2022-12-18T08:50:00;97646.00;;;1.70
14851;BMP180;7517;48.400;11.770;2022-12-18T08:52:27;97648.00;;;1.70
14851;BMP180;7517;48.400;11.770;2022-12-18T08:54:54;97660.00;;;1.70
14851;BMP180;7517;48.400;11.770;2022-12-18T08:57:21;97658.00;;;1.80
14851;BMP180;7517;48.400;11.770;2022-12-18T08:59:49;97658.00;;;1.70
14851;BMP180;7517;48.400;11.770;2022-12-18T09:02:21;97663.00;;;1.80
14851;BMP180;7517;48.400;11.770;2022-12-18T09:04:53;97663.00;;;1.90
14851;BMP180;7517;48.400;11.770;2022-12-18T09:07:20;97654.00;;;1.90
14851;BMP180;7517;48.400;11.770;2022-12-18T09:09:52;97656.00;;;2.00
14851;BMP180;7517;48.400;11.770;2022-12-18T09:12:27;97659.00;;;2.00
14851;BMP180;7517;48.400;11.770;2022-12-18T09:15:00;97655.00;;;2.00
14851;BMP180;7517;48.400;11.770;2022-12-18T09:17:32;97651.00;;;1.90
14851;BMP180;7517;48.400;11.770;2022-12-18T09:20:03;97643.00;;;2.00
14851;BMP180;7517;48.400;11.770;2022-12-18T09:22:57;97666.00;;;2.00
14851;BMP180;7517;48.400;11.770;2022-12-18T09:25:38;97641.00;;;2.00
14851;BMP180;7517;48.400;11.770;2022-12-18T09:28:11;97649.00;;;1.90
14851;BMP180;7517;48.400;11.770;2022-12-18T09:30:45;97657.00;;;1.90
14851;BMP180;7517;48.400;11.770;2022-12-18T09:33:32;97642.00;;;1.90
14851;BMP180;7517;48.400;11.770;2022-12-18T09:36:03;97631.00;;;1.90
14851;BMP180;7517;48.400;11.770;2022-12-18T09:38:31;97653.00;;;1.90
14851;BMP180;7517;48.400;11.770;2022-12-18T09:41:22;97645.00;;;1.90
14851;BMP180;7517;48.400;11.770;2022-12-18T09:44:03;97649.00;;;1.80
14851;BMP180;7517;48.400;11.770;2022-12-18T09:46:45;97652.00;;;1.80
14851;BMP180;7517;48.400;11.770;2022-12-18T09:49:21;97635.00;;;1.80
14851;BMP180;7517;48.400;11.770;2022-12-18T09:52:12;97637.00;;;1.80
14851;BMP180;7517;48.400;11.770;2022-12-18T09:54:55;97630.00;;;1.80
14851;BMP180;7517;48.400;11.770;2022-12-18T09:57:35;97632.00;;;1.70
14851;BMP180;7517;48.400;11.770;2022-12-18T10:00:19;97609.00;;;1.70
14851;BMP180;7517;48.400;11.770;2022-12-18T10:02:48;97623.00;;;1.70
14851;BMP180;7517;48.400;11.770;2022-12-18T10:05:37;97625.00;;;1.80
14851;BMP180;7517;48.400;11.770;2022-12-18T10:08:17;97619.00;;;1.80
14851;BMP180;7517;48.400;11.770;2022-12-18T10:10:50;97609.00;;;1.80
14851;BMP180;7517;48.400;11.770;2022-12-18T10:13:33;97606.00;;;1.80
14851;BMP180;7517;48.400;11.770;2022-12-18T10:16:14;97610.00;;;1.90
14851;BMP180;7517;48.400;11.770;2022-12-18T10:19:04;97616.00;;;1.90
14851;BMP180;7517;48.400;11.770;2022-12-18T10:21:50;97593.00;;;1.90
14851;BMP180;7517;48.400;11.770;2022-12-18T10:24:28;97596.00;;;1.90
14851;BMP180;7517;48.400;11.770;2022-12-18T10:27:13;97601.00;;;2.00
14851;BMP180;7517;48.400;11.770;2022-12-18T10:29:44;97594.00;;;2.00
14851;BMP180;7517;48.400;11.770;2022-12-18T10:32:17;97607.00;;;2.00
14851;BMP180;7517;48.400;11.770;2022-12-18T10:35:02;97596.00;;;2.10
14851;BMP180;7517;48.400;11.770;2022-12-18T10:37:36;97585.00;;;2.10
14851;BMP180;7517;48.400;11.770;2022-12-18T10:40:24;97604.00;;;2.10
14851;BMP180;7517;48.400;11.770;2022-12-18T10:43:05;97594.00;;;2.10
14851;BMP180;7517;48.400;11.770;2022-12-18T10:45:33;97586.00;;;2.20
14851;BMP180;7517;48.400;11.770;2022-12-18T10:48:23;97614.00;;;2.20
14851;BMP180;7517;48.400;11.770;2022-12-18T10:51:03;97609.00;;;2.30
14851;BMP180;7517;48.400;11.770;2022-12-18T10:53:36;97595.00;;;2.40
14851;BMP180;7517;48.400;11.770;2022-12-18T10:56:11;97608.00;;;2.50
14851;BMP180;7517;48.400;11.770;2022-12-18T10:58:58;97616.00;;;2.50
14851;BMP180;7517;48.400;11.770;2022-12-18T11:01:46;97614.00;;;2.50
14851;BMP180;7517;48.400;11.770;2022-12-18T11:04:29;97596.00;;;2.50
14851;BMP180;7517;48.400;11.770;2022-12-18T11:07:09;97594.00;;;2.50
14851;BMP180;7517;48.400;11.770;2022-12-18T11:09:40;97608.00;;;2.50
14851;BMP180;7517;48.400;11.770;2022-12-18T11:12:18;97598.00;;;2.50
14851;BMP180;7517;48.400;11.770;2022-12-18T11:14:51;97605.00;;;2.50
14851;BMP180;7517;48.400;11.770;2022-12-18T11:17:32;97614.00;;;2.50
14851;BMP180;7517;48.400;11.770;2022-12-18T11:20:09;97611.00;;;2.50
14851;BMP180;7517;48.400;11.770;2022-12-18T11:22:58;97611.00;;;2.50
14851;BMP180;7517;48.400;11.770;2022-12-18T11:25:31;97602.00;;;2.50
14851;BMP180;7517;48.400;11.770;2022-12-18T11:28:02;97616.00;;;2.60
14851;BMP180;7517;48.400;11.770;2022-12-18T11:30:31;97613.00;;;2.60
14851;BMP180;7517;48.400;11.770;2022-12-18T11:33:09;97604.00;;;2.60
14851;BMP180;7517;48.400;11.770;2022-12-18T11:35:47;97611.00;;;2.60
14851;BMP180;7517;48.400;11.770;2022-12-18T11:38:24;97607.00;;;2.60
14851;BMP180;7517;48.400;11.770;2022-12-18T11:41:45;97618.00;;;2.60
14851;BMP180;7517;48.400;11.770;2022-12-18T11:45:17;97603.00;;;2.50
14851;BMP180;7517;48.400;11.770;2022-12-18T11:48:22;97596.00;;;2.40
14851;BMP180;7517;48.400;11.770;2022-12-18T11:51:17;97583.00;;;2.40
14851;BMP180;7517;48.400;11.770;2022-12-18T11:54:15;97601.00;;;2.40
14851;BMP180;7517;48.400;11.770;2022-12-18T12:01:00;97599.00;;;2.60
14851;BMP180;7517;48.400;11.770;2022-12-18T12:04:17;97593.00;;;2.60
14851;BMP180;7517;48.400;11.770;2022-12-18T12:07:07;97603.00;;;2.60
14851;BMP180;7517;48.400;11.770;2022-12-18T12:09:50;97580.00;;;2.70
14851;BMP180;7517;48.400;11.770;2022-12-18T12:12:42;97579.00;;;2.70
14851;BMP180;7517;48.400;11.770;2022-12-18T12:15:38;97587.00;;;2.70
14851;BMP180;7517;48.400;11.770;2022-12-18T12:18:23;97574.00;;;2.70
14851;BMP180;7517;48.400;11.770;2022-12-18T12:21:08;97570.00;;;2.70
14851;BMP180;7517;48.400;11.770;2022-12-18T12:23:50;97569.00;;;2.70
14851;BMP180;7517;48.400;11.770;2022-12-18T12:26:32;97576.00;;;2.80
14851;BMP180;7517;48.400;11.770;2022-12-18T12:29:25;97567.00;;;2.80
14851;BMP180;7517;48.400;11.770;2022-12-18T12:32:17;97562.00;;;2.80
14851;BMP180;7517;48.400;11.770;2022-12-18T12:35:08;97554.00;;;2.80
14851;BMP180;7517;48.400;11.770;2022-12-18T12:37:56;97550.00;;;2.80
14851;BMP180;7517;48.400;11.770;2022-12-18T12:40:33;97552.00;;;2.80
14851;BMP180;7517;48.400;11.770;2022-12-18T12:43:20;97550.00;;;2.80
14851;BMP180;7517;48.400;11.770;2022-12-18T12:45:54;97552.00;;;2.80
14851;BMP180;7517;48.400;11.770;2022-12-18T12:48:40;97565.00;;;2.80
14851;BMP180;7517;48.400;11.770;2022-12-18T12:51:20;97563.00;;;2.70
14851;BMP180;7517;48.400;11.770;2022-12-18T12:53:49;97551.00;;;2.70
14851;BMP180;7517;48.400;11.770;2022-12-18T12:56:20;97565.00;;;2.80
14851;BMP180;7517;48.400;11.770;2022-12-18T12:59:06;97541.00;;;2.70
14851;BMP180;7517;48.400;11.770;2022-12-18T13:01:49;97566.00;;;2.80
14851;BMP180;7517;48.400;11.770;2022-12-18T13:04:34;97568.00;;;2.80
14851;BMP180;7517;48.400;11.770;2022-12-18T13:07:20;97565.00;;;2.80
14851;BMP180;7517;48.400;11.770;2022-12-18T13:10:33;97572.00;;;2.80
14851;BMP180;7517;48.400;11.770;2022-12-18T13:13:05;97583.00;;;2.80
14851;BMP180;7517;48.400;11.770;2022-12-18T13:15:46;97588.00;;;2.70
14851;BMP180;7517;48.400;11.770;2022-12-18T13:18:20;97587.00;;;2.80
14851;BMP180;7517;48.400;11.770;2022-12-18T13:21:21;97574.00;;;2.80
14851;BMP180;7517;48.400;11.770;2022-12-18T13:23:50;97585.00;;;2.80
14851;BMP180;7517;48.400;11.770;2022-12-18T13:26:49;97581.00;;;2.70
14851;BMP180;7517;48.400;11.770;2022-12-18T13:29:42;97572.00;;;2.70
14851;BMP180;7517;48.400;11.770;2022-12-18T13:32:24;97578.00;;;2.70
14851;BMP180;7517;48.400;11.770;2022-12-18T13:35:39;97589.00;;;2.60
14851;BMP180;7517;48.400;11.770;2022-12-18T13:38:22;97582.00;;;2.60
14851;BMP180;7517;48.400;11.770;2022-12-18T13:40:56;97569.00;;;2.60
14851;BMP180;7517;48.400;11.770;2022-12-18T13:43:34;97576.00;;;2.60
14851;BMP180;7517;48.400;11.770;2022-12-18T13:46:22;97563.00;;;2.60
14851;BMP180;7517;48.400;11.770;2022-12-18T13:49:00;97564.00;;;2.60
14851;BMP180;7517;48.400;11.770;2022-12-18T13:51:32;97573.00;;;2.60
14851;BMP180;7517;48.400;11.770;2022-12-18T13:54:11;97567.00;;;2.60
14851;BMP180;7517;48.400;11.770;2022-12-18T13:56:47;97551.00;;;2.60
14851;BMP180;7517;48.400;11.770;2022-12-18T13:59:47;97574.00;;;2.60
14851;BMP180;7517;48.400;11.770;2022-12-18T14:02:21;97579.00;;;2.60
14851;BMP180;7517;48.400;11.770;2022-12-18T14:04:52;97540.00;;;2.60
14851;BMP180;7517;48.400;11.770;2022-12-18T14:08:10;97562.00;;;2.50
14851;BMP180;7517;48.400;11.770;2022-12-18T14:10:53;97565.00;;;2.50
14851;BMP180;7517;48.400;11.770;2022-12-18T14:13:33;97555.00;;;2.50
14851;BMP180;7517;48.400;11.770;2022-12-18T14:16:04;97552.00;;;2.40
14851;BMP180;7517;48.400;11.770;2022-12-18T14:18:44;97555.00;;;2.40
14851;BMP180;7517;48.400;11.770;2022-12-18T14:21:25;97553.00;;;2.30
14851;BMP180;7517;48.400;11.770;2022-12-18T14:24:12;97575.00;;;2.20
14851;BMP180;7517;48.400;11.770;2022-12-18T14:26:48;97569.00;;;2.20
14851;BMP180;7517;48.400;11.770;2022-12-18T14:29:24;97559.00;;;2.20
14851;BMP180;7517;48.400;11.770;2022-12-18T14:32:11;97578.00;;;2.20
14851;BMP180;7517;48.400;11.770;2022-12-18T14:34:40;97581.00;;;2.20
14851;BMP180;7517;48.400;11.770;2022-12-18T14:37:11;97586.00;;;2.10
14851;BMP180;7517;48.400;11.770;2022-12-18T14:39:52;97567.00;;;2.00
14851;BMP180;7517;48.400;11.770;2022-12-18T14:42:22;97578.00;;;2.00
14851;BMP180;7517;48.400;11.770;2022-12-18T14:45:33;97560.00;;;1.90
14851;BMP180;7517;48.400;11.770;2022-12-18T14:48:06;97571.00;;;1.90
14851;BMP180;7517;48.400;11.770;2022-12-18T14:50:36;97570.00;;;1.80
14851;BMP180;7517;48.400;11.770;2022-12-18T14:53:19;97577.00;;;1.80
14851;BMP180;7517;48.400;11.770;2022-12-18T14:55:48;97560.00;;;1.80
14851;BMP180;7517;48.400;11.770;2022-12-18T14:58:18;97550.00;;;1.70
14851;BMP180;7517;48.400;11.770;2022-12-18T15:00:45;97549.00;;;1.70
14851;BMP180;7517;48.400;11.770;2022-12-18T15:03:18;97538.00;;;1.60
14851;BMP180;7517;48.400;11.770;2022-12-18T15:05:47;97557.00;;;1.60
14851;BMP180;7517;48.400;11.770;2022-12-18T15:08:30;97559.00;;;1.50
14851;BMP180;7517;48.400;11.770;2022-12-18T15:10:58;97553.00;;;1.50